sensor_id;sensor_type;location;lat;lon;timestamp;pressure;altitude;pressure_sealevel;temperature;humidity
62333;BME280;48624;49.812;8.562;2022-08-06T17:33:03;101252.09;;;31.11;19.86
62333;BME280;48624;49.812;8.562;2022-08-06T17:36:58;101244.00;;;30.58;19.90
62333;BME280;48624;49.812;8.562;2022-08-06T17:47:11;101246.50;;;30.67;20.19
62333;BME280;48624;49.812;8.562;2022-08-06T17:49:43;101245.31;;;29.76;21.07
62333;BME280;48624;49.812;8.562;2022-08-06T17:56:03;101249.16;;;29.48;21.07
62333;BME280;48624;49.812;8.562;2022-08-06T18:01:56;101243.84;;;28.24;23.14
62333;BME280;48624;49.812;8.562;2022-08-06T18:04:44;101259.97;;;27.33;23.99
62333;BME280;48624;49.812;8.562;2022-08-06T18:07:13;101260.19;;;26.88;24.80
62333;BME280;48624;49.812;8.562;2022-08-06T18:09:45;101257.00;;;26.48;25.17
62333;BME280;48624;49.812;8.562;2022-08-06T18:12:46;101272.56;;;25.79;26.06
62333;BME280;48624;49.812;8.562;2022-08-06T18:15:47;101266.19;;;26.01;25.48
62333;BME280;48624;49.812;8.562;2022-08-06T19:41:25;101316.13;;;21.82;32.48
62333;BME280;48624;49.812;8.562;2022-08-06T19:44:56;101320.44;;;21.56;33.75
62333;BME280;48624;49.812;8.562;2022-08-06T19:48:24;101323.66;;;21.60;33.32
62333;BME280;48624;49.812;8.562;2022-08-06T19:54:11;101320.81;;;21.43;33.14
62333;BME280;48624;49.812;8.562;2022-08-06T19:56:37;101327.91;;;21.62;32.95
62333;BME280;48624;49.812;8.562;2022-08-06T19:59:05;101320.59;;;21.37;33.59
62333;BME280;48624;49.812;8.562;2022-08-06T20:01:42;101317.81;;;21.28;33.21
62333;BME280;48624;49.812;8.562;2022-08-06T20:04:27;101323.63;;;21.33;33.65
62333;BME280;48624;49.812;8.562;2022-08-06T20:07:14;101319.97;;;21.06;34.33
62333;BME280;48624;49.812;8.562;2022-08-06T20:16:32;101323.25;;;20.82;34.93
62333;BME280;48624;49.812;8.562;2022-08-06T20:19:04;101323.94;;;20.84;34.58
62333;BME280;48624;49.812;8.562;2022-08-06T20:21:49;101323.44;;;20.71;34.97
62333;BME280;48624;49.812;8.562;2022-08-06T21:25:25;101318.34;;;19.62;37.49
62333;BME280;48624;49.812;8.562;2022-08-06T21:28:40;101327.25;;;19.53;37.60
62333;BME280;48624;49.812;8.562;2022-08-06T21:31:44;101317.94;;;19.47;38.00
62333;BME280;48624;49.812;8.562;2022-08-06T21:34:43;101314.38;;;19.17;39.09
62333;BME280;48624;49.812;8.562;2022-08-06T21:38:04;101318.91;;;19.17;38.95
62333;BME280;48624;49.812;8.562;2022-08-06T21:40:29;101322.28;;;19.38;38.28
62333;BME280;48624;49.812;8.562;2022-08-06T21:42:55;101327.50;;;19.10;38.71
62333;BME280;48624;49.812;8.562;2022-08-06T21:45:20;101331.63;;;19.24;38.38
62333;BME280;48624;49.812;8.562;2022-08-06T21:47:51;101325.22;;;19.06;38.91
62333;BME280;48624;49.812;8.562;2022-08-06T21:50:18;101330.63;;;19.16;38.66
62333;BME280;48624;49.812;8.562;2022-08-06T21:52:47;101328.81;;;19.16;38.73
62333;BME280;48624;49.812;8.562;2022-08-06T21:55:13;101328.22;;;19.22;38.26
62333;BME280;48624;49.812;8.562;2022-08-06T21:57:41;101334.19;;;19.16;38.48
62333;BME280;48624;49.812;8.562;2022-08-06T22:00:18;101330.34;;;19.19;38.67
62333;BME280;48624;49.812;8.562;2022-08-06T22:03:10;101327.38;;;19.12;39.11
62333;BME280;48624;49.812;8.562;2022-08-06T22:05:40;101325.09;;;19.07;38.90
62333;BME280;48624;49.812;8.562;2022-08-06T22:08:06;101322.13;;;19.01;39.01
62333;BME280;48624;49.812;8.562;2022-08-06T22:10:34;101326.84;;;18.87;40.06
62333;BME280;48624;49.812;8.562;2022-08-06T22:13:00;101325.16;;;18.76;39.86
62333;BME280;48624;49.812;8.562;2022-08-06T22:15:27;101317.69;;;18.90;39.61
62333;BME280;48624;49.812;8.562;2022-08-06T22:17:52;101316.28;;;18.85;39.69
62333;BME280;48624;49.812;8.562;2022-08-06T22:20:18;101319.84;;;18.55;40.11
62333;BME280;48624;49.812;8.562;2022-08-06T22:22:54;101318.53;;;18.90;39.74
62333;BME280;48624;49.812;8.562;2022-08-06T22:25:27;101315.66;;;18.72;40.00
62333;BME280;48624;49.812;8.562;2022-08-06T22:27:54;101317.63;;;18.70;39.97
62333;BME280;48624;49.812;8.562;2022-08-06T22:30:21;101313.78;;;18.63;40.16
62333;BME280;48624;49.812;8.562;2022-08-06T22:33:09;101313.38;;;18.57;40.04
62333;BME280;48624;49.812;8.562;2022-08-06T22:35:35;101308.41;;;18.53;40.39
62333;BME280;48624;49.812;8.562;2022-08-06T22:38:03;101306.31;;;18.56;40.32
62333;BME280;48624;49.812;8.562;2022-08-06T22:40:49;101315.00;;;18.49;40.46
62333;BME280;48624;49.812;8.562;2022-08-06T22:43:16;101306.81;;;18.40;40.61
62333;BME280;48624;49.812;8.562;2022-08-06T22:45:43;101314.13;;;18.69;40.11
62333;BME280;48624;49.812;8.562;2022-08-06T22:48:10;101310.31;;;18.31;41.40
62333;BME280;48624;49.812;8.562;2022-08-06T22:50:36;101313.72;;;18.43;40.66
62333;BME280;48624;49.812;8.562;2022-08-06T22:53:04;101315.00;;;18.39;41.02
62333;BME280;48624;49.812;8.562;2022-08-06T22:55:30;101308.84;;;18.27;41.05
62333;BME280;48624;49.812;8.562;2022-08-06T22:57:57;101319.38;;;17.97;42.11
62333;BME280;48624;49.812;8.562;2022-08-06T23:00:24;101317.28;;;18.01;41.97
62333;BME280;48624;49.812;8.562;2022-08-06T23:02:50;101312.06;;;18.21;41.13
62333;BME280;48624;49.812;8.562;2022-08-06T23:05:19;101300.00;;;18.05;41.76
62333;BME280;48624;49.812;8.562;2022-08-06T23:07:45;101311.25;;;18.30;41.09
62333;BME280;48624;49.812;8.562;2022-08-06T23:10:14;101302.72;;;18.15;41.48
62333;BME280;48624;49.812;8.562;2022-08-06T23:12:40;101312.09;;;17.99;41.96
62333;BME280;48624;49.812;8.562;2022-08-06T23:15:09;101297.03;;;18.08;41.65
62333;BME280;48624;49.812;8.562;2022-08-06T23:17:34;101305.09;;;18.08;42.01
62333;BME280;48624;49.812;8.562;2022-08-06T23:20:00;101307.88;;;17.64;42.74
62333;BME280;48624;49.812;8.562;2022-08-06T23:22:26;101310.00;;;17.82;42.31
62333;BME280;48624;49.812;8.562;2022-08-06T23:24:52;101305.22;;;17.85;42.36
62333;BME280;48624;49.812;8.562;2022-08-06T23:27:17;101297.69;;;17.79;42.30
62333;BME280;48624;49.812;8.562;2022-08-06T23:29:43;101300.50;;;17.99;42.13
62333;BME280;48624;49.812;8.562;2022-08-06T23:32:09;101305.53;;;17.71;43.04
62333;BME280;48624;49.812;8.562;2022-08-06T23:34:34;101296.91;;;17.88;42.17
62333;BME280;48624;49.812;8.562;2022-08-06T23:37:00;101291.66;;;17.87;42.26
62333;BME280;48624;49.812;8.562;2022-08-06T23:39:26;101302.81;;;17.61;42.84
62333;BME280;48624;49.812;8.562;2022-08-06T23:41:52;101296.75;;;17.47;43.58
62333;BME280;48624;49.812;8.562;2022-08-06T23:44:18;101302.81;;;17.61;43.17
62333;BME280;48624;49.812;8.562;2022-08-06T23:46:43;101297.56;;;17.81;42.66
62333;BME280;48624;49.812;8.562;2022-08-06T23:49:09;101296.25;;;17.54;43.18
62333;BME280;48624;49.812;8.562;2022-08-06T23:51:35;101290.00;;;17.65;42.91
62333;BME280;48624;49.812;8.562;2022-08-06T23:54:00;101295.91;;;17.68;42.59
62333;BME280;48624;49.812;8.562;2022-08-06T23:56:26;101292.91;;;17.61;42.72
62333;BME280;48624;49.812;8.562;2022-08-06T23:58:51;101291.50;;;17.57;43.13
